Time;durP1;ratioP1;P1;durP2;ratioP2;P2;SDS_P1;SDS_P2;PMS_P1;PMS_P2;Temp;Humidity;BMP_temperature;BMP_pressure;BME280_temperature;BME280_humidity;BME280_pressure;Samples;Min_cycle;Max_cycle;Signal;HPM_P1;HPM_P2
2021/11/13 00:02:18;;;;;;;;;41.00;34.25;;;;;12.33;63.81;101016.88;4958789;28;46638;-50
2021/11/13 00:04:44;;;;;;;;;44.50;34.00;;;;;12.33;63.89;101018.66;4958827;28;45280;-50
2021/11/13 00:07:09;;;;;;;;;41.25;35.50;;;;;12.34;63.95;101008.09;4958920;28;45301;-50
2021/11/13 00:09:34;;;;;;;;;41.25;33.50;;;;;12.35;63.87;101007.19;4958801;28;45543;-48
2021/11/13 00:12:00;;;;;;;;;43.25;36.00;;;;;12.37;64.04;101004.53;4958938;28;45237;-47
2021/11/13 00:14:29;;;;;;;;;40.00;34.25;;;;;12.39;64.10;101002.75;4958489;28;45151;-51
2021/11/13 00:16:55;;;;;;;;;35.75;31.75;;;;;12.39;64.11;100999.22;4958962;28;45377;-51
2021/11/13 00:19:20;;;;;;;;;42.00;33.50;;;;;12.35;63.89;100983.47;4960137;28;45399;-47
2021/11/13 00:21:46;;;;;;;;;37.25;32.00;;;;;12.44;63.96;100990.34;4958588;28;45772;-45
2021/11/13 00:24:12;;;;;;;;;41.50;35.00;;;;;12.46;63.96;100990.31;4958257;28;45336;-46
2021/11/13 00:26:37;;;;;;;;;39.50;33.00;;;;;12.48;63.83;100988.53;4958610;28;45458;-47
2021/11/13 00:29:03;;;;;;;;;39.75;33.00;;;;;12.50;63.98;100990.25;4956730;28;45473;-47
2021/11/13 00:31:29;;;;;;;;;44.25;32.25;;;;;12.49;63.92;100985.88;4957473;28;48023;-46
2021/11/13 00:33:54;;;;;;;;;37.50;32.00;;;;;12.51;63.93;100986.72;4958474;28;45273;-50
2021/11/13 00:36:19;;;;;;;;;33.25;27.75;;;;;12.50;63.78;100981.44;4960638;28;45308;-49
2021/11/13 00:38:45;;;;;;;;;34.00;28.25;;;;;12.51;64.25;100980.56;4958754;28;45246;-49
2021/11/13 00:41:10;;;;;;;;;31.75;28.25;;;;;12.48;64.34;100981.50;4958741;28;45460;-47
2021/11/13 00:43:36;;;;;;;;;25.50;24.50;;;;;12.51;64.39;100992.00;4958107;28;45208;-48
2021/11/13 00:46:01;;;;;;;;;39.75;32.50;;;;;12.52;64.06;100991.06;4958567;28;45623;-46
2021/11/13 00:48:26;;;;;;;;;33.75;29.00;;;;;12.51;64.18;100991.09;4967567;28;45417;-46
2021/11/13 00:50:52;;;;;;;;;37.75;29.75;;;;;12.49;64.37;100984.97;4965721;28;45295;-46
2021/11/13 00:53:18;;;;;;;;;35.75;31.25;;;;;12.52;64.18;101001.63;4969842;28;45307;-46
2021/11/13 00:55:44;;;;;;;;;35.00;31.50;;;;;12.51;64.39;100993.75;4958626;28;45434;-48
2021/11/13 00:58:09;;;;;;;;;31.50;30.50;;;;;12.49;64.40;101001.69;4957723;28;45589;-48
2021/11/13 01:00:35;;;;;;;;;36.25;31.00;;;;;12.49;64.32;100992.88;4957885;28;46181;-49
2021/11/13 01:03:00;;;;;;;;;31.75;29.25;;;;;12.52;64.66;101006.03;4958115;28;45328;-46
2021/11/13 01:05:27;;;;;;;;;32.00;27.50;;;;;12.50;64.68;100998.16;4958376;28;45807;-45
2021/11/13 01:07:53;;;;;;;;;34.50;32.50;;;;;12.50;64.71;100986.72;4958091;28;45278;-46
2021/11/13 01:10:20;;;;;;;;;38.25;33.25;;;;;12.51;64.68;100988.47;4957928;28;45512;-51
2021/11/13 01:12:47;;;;;;;;;32.00;30.25;;;;;12.54;64.66;100993.69;4956224;28;45597;-47
2021/11/13 01:15:18;;;;;;;;;37.00;31.75;;;;;12.55;64.61;100991.91;4962867;28;45277;-49
2021/11/13 01:17:44;;;;;;;;;38.50;33.00;;;;;12.55;64.60;100987.50;4960147;28;45311;-49
2021/11/13 01:20:12;;;;;;;;;39.00;30.25;;;;;12.57;64.70;100975.19;4977240;28;46071;-49
2021/11/13 01:22:38;;;;;;;;;34.25;33.00;;;;;12.58;64.58;100976.91;4977266;28;45254;-50
2021/11/13 01:25:06;;;;;;;;;36.25;31.00;;;;;12.58;64.88;100974.28;4977556;28;45375;-49
2021/11/13 01:27:32;;;;;;;;;32.00;31.00;;;;;12.58;64.53;100979.56;4975409;28;45603;-48
2021/11/13 01:29:57;;;;;;;;;36.00;31.00;;;;;12.56;64.85;100972.56;4977398;28;45326;-49
2021/11/13 01:32:23;;;;;;;;;37.50;32.75;;;;;12.59;64.76;100976.03;4977147;28;45326;-49
2021/11/13 01:34:48;;;;;;;;;37.00;32.75;;;;;12.56;64.78;100976.06;4977388;28;45351;-48
2021/11/13 01:37:14;;;;;;;;;34.00;29.50;;;;;12.59;64.49;100981.31;4977061;28;45584;-48
2021/11/13 01:39:39;;;;;;;;;35.00;33.00;;;;;12.61;64.55;100981.28;4977300;28;45210;-47
2021/11/13 01:42:05;;;;;;;;;37.25;31.75;;;;;12.61;64.63;100987.41;4979946;28;45298;-50
2021/11/13 01:44:32;;;;;;;;;37.50;32.50;;;;;12.57;64.60;100980.44;4980229;28;45309;-47
2021/11/13 01:46:58;;;;;;;;;31.50;26.25;;;;;12.56;64.90;100988.41;4976801;28;45234;-46
2021/11/13 01:49:24;;;;;;;;;35.00;28.75;;;;;12.59;64.80;100988.31;4972807;28;46027;-46
2021/11/13 01:51:50;;;;;;;;;33.75;31.75;;;;;12.57;65.02;100987.50;4980152;28;45402;-46
2021/11/13 01:54:17;;;;;;;;;32.50;30.50;;;;;12.57;65.30;100988.34;4980240;28;45339;-45
2021/11/13 01:56:42;;;;;;;;;30.50;28.75;;;;;12.56;65.35;100981.34;4979998;28;45388;-45
2021/11/13 01:59:09;;;;;;;;;32.75;28.75;;;;;12.57;65.24;100977.81;4979413;28;45362;-47
2021/11/13 02:01:36;;;;;;;;;32.00;28.50;;;;;12.55;65.47;100968.19;4978447;28;45311;-45
2021/11/13 02:04:02;;;;;;;;;31.50;27.50;;;;;12.56;65.16;100970.78;4979913;28;45280;-47
2021/11/13 02:06:29;;;;;;;;;28.75;27.50;;;;;12.57;65.17;100972.53;4979754;28;45327;-50
2021/11/13 02:08:55;;;;;;;;;26.25;25.25;;;;;12.55;65.15;100971.69;4979776;28;46351;-48
2021/11/13 02:11:23;;;;;;;;;39.50;31.00;;;;;12.57;65.30;100971.69;4979954;28;45330;-45
2021/11/13 02:13:50;;;;;;;;;34.00;31.25;;;;;12.57;65.42;100971.69;4978376;28;45356;-46
2021/11/13 02:16:16;;;;;;;;;30.25;29.00;;;;;12.56;65.34;100969.94;4979693;28;45192;-46
2021/11/13 02:18:42;;;;;;;;;40.25;30.00;;;;;12.55;65.65;100961.16;4979446;28;46269;-48
2021/11/13 02:21:09;;;;;;;;;30.50;28.50;;;;;12.57;65.26;100962.00;4979906;28;45149;-48
2021/11/13 02:23:35;;;;;;;;;35.00;29.75;;;;;12.56;65.56;100975.22;4979515;28;45347;-49
2021/11/13 02:26:01;;;;;;;;;30.50;26.25;;;;;12.54;65.50;100962.06;4979508;28;45445;-45
2021/11/13 02:28:27;;;;;;;;;31.75;29.50;;;;;12.55;65.38;100973.47;4979035;28;45260;-48
2021/11/13 02:30:55;;;;;;;;;28.75;27.00;;;;;12.54;65.32;100969.97;4979630;28;45509;-46
2021/11/13 02:33:22;;;;;;;;;30.50;29.25;;;;;12.52;65.42;100966.50;4979678;28;45173;-47
2021/11/13 02:35:50;;;;;;;;;25.00;25.00;;;;;12.56;65.74;100962.03;4979444;28;45469;-48
2021/11/13 02:38:24;;;;;;;;;30.75;28.00;;;;;12.54;65.29;100958.53;4979329;28;45453;-45
2021/11/13 02:40:55;;;;;;;;;29.50;28.50;;;;;12.54;65.37;100958.53;4979285;28;45349;-47
2021/11/13 02:43:22;;;;;;;;;34.00;24.75;;;;;12.56;65.28;100964.66;4979045;28;45500;-45
2021/11/13 02:45:47;;;;;;;;;26.50;25.75;;;;;12.56;65.41;100954.13;4977976;28;45330;-46
2021/11/13 02:48:14;;;;;;;;;31.25;28.00;;;;;12.55;65.45;100950.59;4979316;28;47075;-45
2021/11/13 02:50:42;;;;;;;;;24.50;23.50;;;;;12.53;65.49;100955.06;5017141;27;45639;-47
2021/11/13 02:53:19;;;;;;;;;30.00;24.75;;;;;12.54;65.74;100956.78;4978660;28;45320;-45
2021/11/13 02:55:45;;;;;;;;;31.50;24.75;;;;;12.52;65.66;100953.31;4979329;28;45186;-49
2021/11/13 02:58:11;;;;;;;;;22.25;20.00;;;;;12.51;65.86;100970.03;4978912;28;45256;-48
2021/11/13 03:00:38;;;;;;;;;30.25;25.25;;;;;12.54;65.64;100958.53;4978884;28;45228;-49
2021/11/13 03:03:03;;;;;;;;;24.25;20.50;;;;;12.52;65.74;100955.94;4979416;28;45230;-48
2021/11/13 03:05:35;;;;;;;;;25.00;22.25;;;;;12.52;65.80;100955.94;4978991;28;45232;-49
2021/11/13 03:08:03;;;;;;;;;27.00;24.25;;;;;12.52;65.87;100953.31;4979166;28;46315;-45
2021/11/13 03:10:32;;;;;;;;;22.75;21.25;;;;;12.50;65.67;100945.44;4978978;28;45354;-46
2021/11/13 03:12:58;;;;;;;;;26.25;24.50;;;;;12.52;65.88;100950.66;4978788;28;45410;-45
2021/11/13 03:15:24;;;;;;;;;24.25;21.25;;;;;12.50;65.93;100948.06;4978784;28;45296;-49
2021/11/13 03:17:51;;;;;;;;;26.50;22.00;;;;;12.55;65.71;100945.31;4977692;28;47032;-50
2021/11/13 03:20:22;;;;;;;;;29.00;24.00;;;;;12.57;65.45;100950.59;4978837;28;46441;-47
2021/11/13 03:22:47;;;;;;;;;23.75;20.00;;;;;12.57;65.48;100946.19;4979056;28;45339;-45
2021/11/13 03:25:19;;;;;;;;;28.25;22.25;;;;;12.56;65.67;100949.72;4978727;28;45511;-50
2021/11/13 03:27:48;;;;;;;;;25.00;22.00;;;;;12.58;65.59;100947.91;4978560;28;46050;-49
2021/11/13 03:30:14;;;;;;;;;23.25;20.00;;;;;12.60;65.53;100953.16;4978764;28;45348;-50
2021/11/13 03:32:40;;;;;;;;;23.50;20.00;;;;;12.58;65.86;100940.00;4978890;28;45243;-50
2021/11/13 03:35:06;;;;;;;;;21.25;20.25;;;;;12.59;65.59;100947.03;4978962;28;45261;-48
2021/11/13 03:37:32;;;;;;;;;19.00;15.50;;;;;12.61;65.88;100952.25;4978778;28;46374;-49
2021/11/13 03:39:58;;;;;;;;;21.00;19.00;;;;;12.61;65.57;100953.13;4978744;28;45270;-49
2021/11/13 03:42:27;;;;;;;;;21.00;19.00;;;;;12.63;65.52;100956.59;4978474;28;45219;-49
2021/11/13 03:44:53;;;;;;;;;18.00;15.75;;;;;12.62;65.56;100954.88;4978625;28;45390;-49
2021/11/13 03:47:19;;;;;;;;;24.00;20.25;;;;;12.61;65.96;100953.13;4972559;28;45343;-46
2021/11/13 03:49:45;;;;;;;;;17.75;17.75;;;;;12.61;65.83;100947.84;5025643;28;45398;-46
2021/11/13 03:52:10;;;;;;;;;15.50;15.25;;;;;12.59;65.73;100947.03;4978780;28;45553;-46
2021/11/13 03:54:37;;;;;;;;;11.00;10.00;;;;;12.59;65.88;100948.78;4978495;28;45230;-49
2021/11/13 03:57:03;;;;;;;;;18.00;13.75;;;;;12.56;65.91;100947.06;4978348;28;46226;-50
2021/11/13 03:59:29;;;;;;;;;17.50;14.50;;;;;12.56;65.94;100943.59;4978217;28;45309;-50
2021/11/13 04:01:54;;;;;;;;;13.50;13.50;;;;;12.58;66.06;100957.56;4978375;28;45376;-47
2021/11/13 04:04:19;;;;;;;;;16.75;15.75;;;;;12.57;65.97;100951.44;4977080;28;45517;-46
2021/11/13 04:06:45;;;;;;;;;18.50;13.75;;;;;12.58;65.76;100953.19;4978392;28;46102;-48
2021/11/13 04:09:10;;;;;;;;;14.00;12.75;;;;;12.56;66.26;100948.84;4978389;28;45297;-45
2021/11/13 04:11:35;;;;;;;;;15.00;13.00;;;;;12.55;65.94;100955.88;4978555;28;45317;-49
2021/11/13 04:14:01;;;;;;;;;16.00;13.75;;;;;12.52;66.40;100951.53;4978064;28;45395;-48
2021/11/13 04:16:27;;;;;;;;;24.00;15.75;;;;;12.51;66.52;100959.47;4978257;28;46035;-49
2021/11/13 04:18:53;;;;;;;;;10.25;10.00;;;;;12.48;66.26;100957.75;4978242;28;45343;-49
2021/11/13 04:21:18;;;;;;;;;15.00;12.75;;;;;12.52;66.40;100961.22;4978341;28;45252;-50
2021/11/13 04:23:44;;;;;;;;;16.25;12.75;;;;;12.50;66.39;100963.00;4976928;28;45800;-45
2021/11/13 04:26:10;;;;;;;;;13.75;10.50;;;;;12.51;66.18;100967.38;4978095;28;46240;-47
2021/11/13 04:28:36;;;;;;;;;12.25;10.50;;;;;12.44;66.45;100956.09;4977920;28;45297;-46
2021/11/13 04:31:01;;;;;;;;;14.00;11.75;;;;;12.48;66.57;100964.81;4978340;28;45216;-48
2021/11/13 04:33:28;;;;;;;;;21.00;14.00;;;;;12.44;66.27;100953.47;4978129;28;45398;-50
2021/11/13 04:38:25;;;;;;;;;14.50;11.25;;;;;12.44;66.39;100953.47;4959347;28;45310;-49
2021/11/13 04:40:51;;;;;;;;;10.75;10.50;;;;;12.44;66.53;100952.56;4957730;28;45335;-47
2021/11/13 04:43:16;;;;;;;;;16.50;15.25;;;;;12.45;66.57;100949.03;4975593;28;45281;-47
2021/11/13 04:45:42;;;;;;;;;15.75;13.25;;;;;12.44;66.33;100952.56;4976492;28;47365;-48
2021/11/13 04:48:07;;;;;;;;;12.75;9.00;;;;;12.45;66.59;100947.28;4974021;28;45342;-48
2021/11/13 04:50:36;;;;;;;;;12.25;9.75;;;;;12.46;66.54;100948.16;5022720;27;45250;-45
2021/11/13 04:53:02;;;;;;;;;16.25;12.50;;;;;12.43;66.51;100935.03;4977822;28;45425;-49
2021/11/13 04:55:28;;;;;;;;;15.75;12.25;;;;;12.46;66.59;100943.72;4977797;28;45490;-49
2021/11/13 04:57:53;;;;;;;;;16.25;11.00;;;;;12.42;66.47;100936.78;4977221;28;45412;-45
2021/11/13 05:00:21;;;;;;;;;11.00;8.00;;;;;12.43;66.40;100938.53;4977836;28;45317;-48
2021/11/13 05:02:47;;;;;;;;;15.00;12.75;;;;;12.44;66.84;100949.94;4977640;28;45173;-45
2021/11/13 05:05:13;;;;;;;;;10.00;7.00;;;;;12.44;66.49;100949.94;4977551;28;45211;-47
2021/11/13 05:07:38;;;;;;;;;12.25;10.75;;;;;12.44;66.75;100947.28;4977523;28;45497;-46
2021/11/13 05:10:04;;;;;;;;;14.00;12.50;;;;;12.42;66.73;100942.06;4977957;28;45196;-47
2021/11/13 05:12:30;;;;;;;;;12.75;11.75;;;;;12.43;66.50;100942.94;4975917;28;45436;-46
2021/11/13 05:14:55;;;;;;;;;15.75;13.00;;;;;12.42;66.66;100949.97;4978410;28;45324;-46
2021/11/13 05:17:20;;;;;;;;;14.25;10.75;;;;;12.43;66.74;100956.97;4984053;28;45338;-49
2021/11/13 05:19:46;;;;;;;;;11.25;10.25;;;;;12.44;66.89;100947.28;4972233;28;45428;-46
2021/11/13 05:22:11;;;;;;;;;11.00;10.25;;;;;12.42;66.82;100962.28;4981559;28;45591;-46
2021/11/13 05:24:36;;;;;;;;;12.75;10.00;;;;;12.41;66.84;100950.00;4984256;28;45544;-49
2021/11/13 05:27:03;;;;;;;;;15.25;12.25;;;;;12.40;67.15;100954.41;4983560;28;45382;-46
2021/11/13 05:29:28;;;;;;;;;12.00;8.75;;;;;12.40;66.93;100964.06;4983899;28;45345;-48
2021/11/13 05:31:54;;;;;;;;;10.25;10.25;;;;;12.34;67.32;100944.84;4983760;28;45239;-47
2021/11/13 05:34:19;;;;;;;;;11.75;9.50;;;;;12.38;66.88;100955.31;4983734;28;46683;-46
2021/11/13 05:36:46;;;;;;;;;12.25;9.25;;;;;12.37;66.89;100964.16;4983877;28;45225;-48
2021/11/13 05:39:14;;;;;;;;;9.75;9.50;;;;;12.33;67.32;100958.91;4983996;28;45470;-50
2021/11/13 05:41:40;;;;;;;;;11.00;9.25;;;;;12.32;67.49;100970.34;4983374;28;45454;-50
2021/11/13 05:44:05;;;;;;;;;10.75;9.25;;;;;12.30;67.00;100964.25;4983115;28;46122;-47
2021/11/13 05:46:30;;;;;;;;;13.00;9.00;;;;;12.33;67.13;100971.22;4983545;28;45451;-45
2021/11/13 05:48:56;;;;;;;;;6.00;5.25;;;;;12.31;67.12;100968.63;5014629;28;45681;-50
2021/11/13 05:51:21;;;;;;;;;8.75;8.50;;;;;12.32;67.13;100966.84;4988907;28;45363;-47
2021/11/13 05:53:46;;;;;;;;;10.50;7.50;;;;;12.35;66.85;100966.78;4962643;28;47047;-48
2021/11/13 05:56:12;;;;;;;;;10.25;6.75;;;;;12.34;66.95;100962.44;4963980;28;45431;-48
2021/11/13 05:58:37;;;;;;;;;9.00;7.25;;;;;12.36;67.37;100968.53;4963871;28;45577;-49
2021/11/13 06:01:03;;;;;;;;;7.75;7.00;;;;;12.34;67.22;100965.94;4963623;28;45262;-48
2021/11/13 06:03:28;;;;;;;;;7.75;6.75;;;;;12.38;67.17;100966.75;4963767;28;45836;-48
2021/11/13 06:05:54;;;;;;;;;9.50;7.00;;;;;12.38;67.10;100958.84;4963679;28;45394;-49
2021/11/13 06:08:19;;;;;;;;;9.00;6.00;;;;;12.32;67.17;100948.41;4964044;28;45382;-45
2021/11/13 06:10:44;;;;;;;;;7.25;7.25;;;;;12.40;67.43;100948.25;4963806;28;45294;-46
2021/11/13 06:13:10;;;;;;;;;8.00;6.75;;;;;12.42;66.73;100954.38;4963507;28;46316;-49
2021/11/13 06:15:35;;;;;;;;;7.75;6.75;;;;;12.42;66.89;100964.94;4963678;28;45242;-49
2021/11/13 06:18:01;;;;;;;;;10.25;9.25;;;;;12.44;66.97;100974.53;4964006;28;45588;-50
2021/11/13 06:20:27;;;;;;;;;10.00;6.75;;;;;12.45;66.84;100968.38;4963537;28;45411;-47
2021/11/13 06:22:52;;;;;;;;;9.75;8.00;;;;;12.46;66.88;100971.88;4963516;28;46112;-48
2021/11/13 06:25:18;;;;;;;;;5.50;4.50;;;;;12.45;67.03;100957.84;4963411;28;45240;-46
2021/11/13 06:27:44;;;;;;;;;6.50;6.50;;;;;12.43;67.35;100956.13;4942601;28;45278;-47
2021/11/13 06:30:11;;;;;;;;;9.50;8.00;;;;;12.46;67.14;100972.72;4960103;28;45370;-47
2021/11/13 06:32:38;;;;;;;;;11.75;7.25;;;;;12.44;67.15;100971.03;4960113;28;45833;-45
2021/11/13 06:35:06;;;;;;;;;9.00;6.75;;;;;12.48;66.87;100978.00;4965849;28;45374;-49
2021/11/13 06:37:32;;;;;;;;;7.50;7.25;;;;;12.49;67.02;100975.31;4967548;28;45412;-46
2021/11/13 06:39:57;;;;;;;;;8.50;8.00;;;;;12.52;67.18;100980.53;4970830;28;45359;-47
2021/11/13 06:42:23;;;;;;;;;9.50;7.00;;;;;12.54;66.84;100985.78;4967921;28;46093;-47
2021/11/13 06:44:48;;;;;;;;;10.25;8.00;;;;;12.57;66.82;100987.50;4968449;28;45406;-48
2021/11/13 06:47:14;;;;;;;;;9.00;6.75;;;;;12.54;67.12;100983.16;4967994;28;45356;-47
2021/11/13 06:49:39;;;;;;;;;8.25;7.50;;;;;12.58;66.77;100994.50;4981484;28;45508;-50
2021/11/13 06:52:05;;;;;;;;;7.50;6.75;;;;;12.59;66.68;100986.56;4968299;28;46099;-46
2021/11/13 06:54:31;;;;;;;;;8.50;8.00;;;;;12.60;66.99;100993.59;4968373;28;45362;-46
2021/11/13 06:56:56;;;;;;;;;13.50;10.25;;;;;12.61;66.89;100982.13;4967290;28;45437;-50
2021/11/13 06:59:21;;;;;;;;;10.25;7.00;;;;;12.61;66.78;100995.31;4966547;28;45519;-47
2021/11/13 07:01:47;;;;;;;;;8.25;5.00;;;;;12.62;66.87;100999.69;4968337;28;46278;-46
2021/11/13 07:04:12;;;;;;;;;9.75;7.50;;;;;12.62;67.00;101004.09;4968292;28;45487;-48
2021/11/13 07:06:38;;;;;;;;;10.25;7.50;;;;;12.63;66.71;101005.84;4967690;28;45621;-45
2021/11/13 07:09:03;;;;;;;;;6.00;5.00;;;;;12.63;66.93;101006.69;4966065;28;45327;-48
2021/11/13 07:11:29;;;;;;;;;8.25;8.00;;;;;12.64;66.79;101011.09;4967499;28;45328;-49
2021/11/13 07:13:55;;;;;;;;;13.00;8.25;;;;;12.64;66.74;101012.84;4970066;28;45352;-47
2021/11/13 07:16:20;;;;;;;;;7.00;4.75;;;;;12.65;67.13;101015.47;4967570;28;45402;-48
2021/11/13 07:18:45;;;;;;;;;8.00;6.00;;;;;12.65;67.06;101020.75;4967366;28;45749;-47
2021/11/13 07:21:11;;;;;;;;;10.50;9.00;;;;;12.68;66.78;101019.81;4966189;28;46027;-46
2021/11/13 07:23:36;;;;;;;;;7.00;6.75;;;;;12.67;67.17;101032.09;4964390;28;45340;-46
2021/11/13 07:26:06;;;;;;;;;7.00;7.00;;;;;12.67;67.01;101033.88;4968434;28;45431;-46
2021/11/13 07:28:40;;;;;;;;;10.25;6.75;;;;;12.66;67.07;101040.91;4968984;28;45257;-49
2021/11/13 07:31:12;;;;;;;;;8.75;7.00;;;;;12.67;67.15;101041.78;4967327;28;46337;-50
2021/11/13 07:33:38;;;;;;;;;6.75;5.75;;;;;12.66;67.04;101046.19;4967491;28;45992;-45
2021/11/13 07:36:05;;;;;;;;;9.50;8.00;;;;;12.64;67.40;101037.44;4966272;28;45375;-48
2021/11/13 07:38:30;;;;;;;;;8.25;6.25;;;;;12.66;67.14;101042.69;4963522;28;45407;-48
2021/11/13 07:40:56;;;;;;;;;6.25;4.75;;;;;12.65;67.24;101039.19;4959078;28;45947;-47
2021/11/13 07:43:21;;;;;;;;;9.00;5.75;;;;;12.62;67.16;101044.50;4958939;28;45449;-49
2021/11/13 07:45:47;;;;;;;;;14.00;9.00;;;;;12.62;67.53;101047.16;4959279;28;45606;-49
2021/11/13 07:48:12;;;;;;;;;9.75;6.00;;;;;12.65;67.05;101041.84;4970582;28;45424;-47
2021/11/13 07:50:38;;;;;;;;;10.25;7.25;;;;;12.65;67.10;101047.09;5019686;27;46714;-50
2021/11/13 07:53:08;;;;;;;;;7.00;7.00;;;;;12.63;67.47;101048.88;4978578;28;45431;-48
2021/11/13 07:55:34;;;;;;;;;7.75;7.25;;;;;12.65;67.20;101055.00;4977417;28;45279;-51
2021/11/13 07:57:59;;;;;;;;;11.50;9.75;;;;;12.63;67.50;101056.78;4978110;28;45241;-46
2021/11/13 08:00:26;;;;;;;;;6.50;6.50;;;;;12.63;67.61;101064.72;4978289;28;45846;-47
2021/11/13 08:02:52;;;;;;;;;6.75;6.50;;;;;12.61;67.49;101063.00;4958651;28;45338;-47
2021/11/13 08:05:17;;;;;;;;;7.50;7.00;;;;;12.63;67.76;101067.34;4970629;28;45553;-49
2021/11/13 08:07:44;;;;;;;;;10.25;6.25;;;;;12.63;67.80;101071.75;4977913;28;45303;-47
2021/11/13 08:10:10;;;;;;;;;6.50;5.50;;;;;12.65;67.63;101081.38;4972747;28;46656;-46
2021/11/13 08:12:37;;;;;;;;;5.50;3.50;;;;;12.63;67.76;101077.88;4965509;28;45185;-50
2021/11/13 08:15:03;;;;;;;;;4.50;4.50;;;;;12.63;67.70;101080.53;4966504;28;45416;-50
2021/11/13 08:17:29;;;;;;;;;6.00;6.00;;;;;12.68;67.41;101080.47;4959210;28;45384;-45
2021/11/13 08:19:54;;;;;;;;;8.25;6.00;;;;;12.70;67.71;101083.91;4958439;28;45551;-48
2021/11/13 08:22:20;;;;;;;;;8.00;4.75;;;;;12.71;67.89;101084.81;4958160;28;45611;-46
2021/11/13 08:24:45;;;;;;;;;8.00;7.00;;;;;12.73;67.63;101078.59;4958707;28;45436;-49
2021/11/13 08:27:12;;;;;;;;;6.75;5.25;;;;;12.75;67.46;101082.06;4972225;28;45478;-46
2021/11/13 08:29:38;;;;;;;;;10.50;3.25;;;;;12.76;67.80;101077.69;4958479;28;45359;-48
2021/11/13 08:32:04;;;;;;;;;7.75;7.75;;;;;12.76;67.68;101075.03;4956964;28;45336;-50
2021/11/13 08:34:30;;;;;;;;;9.00;6.00;;;;;12.73;67.87;101072.44;4958444;28;45340;-46
2021/11/13 08:36:55;;;;;;;;;8.00;8.00;;;;;12.75;67.73;101078.56;4958210;28;45274;-46
2021/11/13 08:39:22;;;;;;;;;9.00;7.50;;;;;12.81;67.80;101091.66;4958161;28;45825;-47
2021/11/13 08:41:48;;;;;;;;;4.75;4.50;;;;;12.80;67.79;101079.34;4958217;28;45264;-50
2021/11/13 08:44:13;;;;;;;;;6.50;4.50;;;;;12.83;67.90;101079.31;4957982;28;45177;-45
2021/11/13 08:46:39;;;;;;;;;7.00;7.00;;;;;12.86;67.64;101075.75;4956982;28;45487;-45
2021/11/13 08:49:05;;;;;;;;;7.25;7.25;;;;;12.89;67.69;101071.25;5014883;28;45220;-49
2021/11/13 08:51:32;;;;;;;;;6.25;5.25;;;;;12.92;67.69;101075.63;4960457;27;45407;-46
2021/11/13 08:53:57;;;;;;;;;7.75;7.00;;;;;12.94;67.64;101071.19;4957381;28;45475;-49
2021/11/13 08:56:27;;;;;;;;;8.50;7.00;;;;;12.97;67.61;101089.59;4958357;28;45308;-48
2021/11/13 08:58:55;;;;;;;;;6.25;5.25;;;;;13.01;67.67;101086.88;4957863;28;46278;-46
2021/11/13 09:01:23;;;;;;;;;5.75;5.75;;;;;13.03;67.65;101080.69;4957992;28;45428;-47
2021/11/13 09:03:51;;;;;;;;;5.00;5.00;;;;;13.05;68.02;101078.91;4958079;28;45524;-45
2021/11/13 09:06:21;;;;;;;;;7.00;7.00;;;;;13.09;67.54;101093.78;4958098;28;45500;-45
2021/11/13 09:08:48;;;;;;;;;8.75;8.00;;;;;13.11;67.45;101086.72;4958029;28;47220;-45
2021/11/13 09:11:17;;;;;;;;;3.75;3.25;;;;;13.14;67.82;101084.00;4958131;28;45316;-47
2021/11/13 09:13:43;;;;;;;;;8.00;6.00;;;;;13.18;67.39;101083.03;4957794;28;46500;-46
2021/11/13 09:16:10;;;;;;;;;7.00;4.50;;;;;13.19;67.50;101082.13;4957996;28;45281;-48
2021/11/13 09:18:38;;;;;;;;;3.25;3.25;;;;;13.24;67.81;101087.34;4957859;28;46072;-46
2021/11/13 09:21:04;;;;;;;;;7.75;6.25;;;;;13.26;67.83;101094.31;4958048;28;45449;-44
2021/11/13 09:23:29;;;;;;;;;4.50;4.00;;;;;13.28;67.57;101092.53;4972882;28;45566;-45
2021/11/13 09:25:54;;;;;;;;;5.00;5.00;;;;;13.31;67.74;101086.31;4957990;28;45452;-45
2021/11/13 09:28:20;;;;;;;;;6.50;5.25;;;;;13.34;67.73;101086.25;4957412;28;45302;-49
2021/11/13 09:30:46;;;;;;;;;5.00;4.50;;;;;13.35;67.90;101079.22;4958114;28;45185;-48
2021/11/13 09:33:13;;;;;;;;;4.00;4.00;;;;;13.36;67.53;101079.16;4957811;28;45216;-50
2021/11/13 09:35:40;;;;;;;;;2.75;2.75;;;;;13.40;67.88;101080.00;4957800;28;45518;-47
2021/11/13 09:38:05;;;;;;;;;4.50;4.00;;;;;13.44;67.78;101084.31;4958196;28;45531;-48
2021/11/13 09:40:31;;;;;;;;;5.00;2.50;;;;;13.47;67.75;101081.59;4976523;27;45397;-46
2021/11/13 09:42:59;;;;;;;;;4.00;3.00;;;;;13.49;67.39;101091.22;4976535;28;45382;-48
2021/11/13 09:45:26;;;;;;;;;2.00;2.00;;;;;13.53;67.55;101088.53;4976192;28;45391;-44
2021/11/13 09:47:55;;;;;;;;;4.00;3.00;;;;;13.57;67.73;101096.38;4959083;28;45315;-48
2021/11/13 09:50:24;;;;;;;;;2.00;2.00;;;;;13.59;67.36;101099.84;4988982;28;45402;-46
2021/11/13 09:52:51;;;;;;;;;3.00;3.00;;;;;13.63;67.16;101098.88;4975648;28;45288;-44
2021/11/13 09:55:18;;;;;;;;;4.25;4.25;;;;;13.67;67.87;101104.94;4976563;28;45463;-46
2021/11/13 09:57:45;;;;;;;;;6.50;5.00;;;;;13.69;67.54;101113.72;4976052;28;46980;-45
2021/11/13 10:00:24;;;;;;;;;4.00;4.00;;;;;13.73;67.40;101109.25;4976440;28;45466;-42
2021/11/13 10:02:49;;;;;;;;;5.00;4.00;;;;;13.76;67.60;101109.16;4978223;28;45348;-45
2021/11/13 10:05:15;;;;;;;;;5.75;5.00;;;;;13.79;67.08;101106.47;4979646;28;45348;-47
2021/11/13 10:07:42;;;;;;;;;5.00;4.50;;;;;13.81;67.47;101109.94;4979478;28;45376;-47
2021/11/13 10:10:10;;;;;;;;;3.75;3.75;;;;;13.85;67.08;101108.97;4979886;28;45233;-46
2021/11/13 10:12:40;;;;;;;;;5.25;4.00;;;;;13.88;67.14;101110.69;4979323;28;45339;-47
2021/11/13 10:15:24;;;;;;;;;7.75;7.75;;;;;13.91;67.26;101121.16;4979381;28;45233;-44
2021/11/13 10:18:04;;;;;;;;;5.00;5.00;;;;;13.91;67.23;101114.13;4979621;28;45404;-44
2021/11/13 10:20:30;;;;;;;;;5.00;5.00;;;;;13.95;67.02;101113.16;4979463;28;45658;-43
2021/11/13 10:22:55;;;;;;;;;6.25;4.50;;;;;14.00;67.27;101106.88;4979773;28;45724;-47
2021/11/13 10:25:21;;;;;;;;;4.75;4.25;;;;;14.03;67.41;101112.13;4979108;28;45312;-45
2021/11/13 10:28:13;;;;;;;;;7.00;6.00;;;;;14.08;67.40;101112.88;4977624;28;47046;-48
2021/11/13 10:30:42;;;;;;;;;5.50;5.50;;;;;14.13;66.97;101111.00;4978274;28;45392;-46
2021/11/13 10:33:08;;;;;;;;;5.75;4.50;;;;;14.16;66.86;101104.78;4979546;28;45439;-48
2021/11/13 10:35:49;;;;;;;;;6.75;4.25;;;;;14.24;67.33;101111.63;4979157;28;45489;-46
2021/11/13 10:38:18;;;;;;;;;4.75;4.00;;;;;14.27;66.69;101111.53;4977417;28;45923;-47
2021/11/13 10:40:54;;;;;;;;;3.25;3.00;;;;;14.33;66.93;101115.81;4965639;28;45365;-45
2021/11/13 10:43:31;;;;;;;;;5.75;5.75;;;;;14.36;66.89;101110.44;4959559;28;45375;-45
2021/11/13 10:46:03;;;;;;;;;7.00;6.75;;;;;14.40;67.02;101105.94;4982240;28;45890;-46
2021/11/13 10:48:29;;;;;;;;;8.50;5.25;;;;;14.42;66.50;101104.16;4985857;28;46986;-46
2021/11/13 10:51:09;;;;;;;;;5.50;5.50;;;;;14.45;66.86;101106.72;5001930;28;45466;-39
2021/11/13 10:53:35;;;;;;;;;9.50;8.00;;;;;14.47;66.77;101086.41;4979255;28;45321;-39
2021/11/13 10:56:17;;;;;;;;;6.00;4.50;;;;;14.47;66.38;101087.25;4978916;28;45428;-39
2021/11/13 10:59:03;;;;;;;;;4.50;4.50;;;;;14.51;66.36;101092.47;4977479;28;48041;-40
2021/11/13 11:01:37;;;;;;;;;4.50;4.25;;;;;14.55;66.23;101091.50;4978889;28;45418;-40
2021/11/13 11:04:16;;;;;;;;;7.25;7.25;;;;;14.55;66.39;101092.38;4979077;28;45293;-41
2021/11/13 11:06:46;;;;;;;;;13.50;8.50;;;;;14.58;66.64;101096.72;4978751;28;45433;-40
2021/11/13 11:09:28;;;;;;;;;12.50;9.50;;;;;14.59;66.01;101088.75;4978725;28;46195;-40
2021/11/13 11:11:57;;;;;;;;;9.25;8.00;;;;;14.63;66.28;101092.19;4978488;28;45326;-39
2021/11/13 11:14:27;;;;;;;;;10.25;7.75;;;;;14.65;66.03;101094.81;4978743;28;45291;-39
2021/11/13 11:17:08;;;;;;;;;6.25;6.25;;;;;14.65;66.10;101087.72;4978791;28;45387;-39
2021/11/13 11:19:36;;;;;;;;;6.75;5.50;;;;;14.68;66.06;101092.97;4978682;28;46219;-39